createdAt,value
2019-05-02T00:00:15.400Z,99.90
2019-05-02T00:02:42.996Z,99.90
2019-05-02T00:05:11.560Z,99.90
2019-05-02T00:07:40.533Z,99.90
2019-05-02T00:10:10.019Z,99.90
2019-05-02T00:12:37.601Z,99.90
2019-05-02T00:15:05.674Z,99.90
2019-05-02T00:17:33.517Z,99.90
2019-05-02T00:20:00.918Z,99.90
2019-05-02T00:22:28.286Z,99.90
2019-05-02T00:24:55.633Z,99.90
2019-05-02T00:27:23.766Z,99.90
2019-05-02T00:29:53.874Z,99.90
2019-05-02T00:32:22.482Z,99.90
2019-05-02T00:34:50.063Z,99.90
2019-05-02T00:37:18.858Z,99.90
2019-05-02T00:39:49.158Z,99.90
2019-05-02T00:42:17.702Z,99.90
2019-05-02T00:44:46.860Z,99.90
2019-05-02T00:47:23.403Z,99.90
2019-05-02T00:49:51.221Z,99.90
2019-05-02T00:52:18.617Z,99.90
2019-05-02T00:54:45.946Z,99.90
2019-05-02T00:57:14.973Z,99.90
2019-05-02T00:59:43.593Z,99.90
2019-05-02T01:02:35.838Z,99.90
2019-05-02T01:05:03.441Z,99.90
2019-05-02T01:07:32.016Z,99.90
2019-05-02T01:09:59.450Z,99.90
2019-05-02T01:12:27.015Z,99.90
2019-05-02T01:14:54.880Z,99.90
2019-05-02T01:17:26.016Z,99.90
2019-05-02T01:19:52.706Z,99.90
2019-05-02T01:22:20.133Z,99.90
2019-05-02T01:24:47.483Z,99.90
2019-05-02T01:27:42.613Z,99.90
2019-05-02T01:30:42.460Z,99.90
2019-05-02T01:33:21.371Z,99.90
2019-05-02T01:35:55.623Z,99.90
2019-05-02T01:38:31.723Z,99.90
2019-05-02T01:40:57.048Z,99.90
2019-05-02T01:43:27.192Z,99.90
2019-05-02T01:45:54.665Z,99.90
2019-05-02T01:48:22.715Z,99.90
2019-05-02T01:50:50.350Z,99.90
2019-05-02T01:53:17.719Z,99.90
2019-05-02T01:55:45.439Z,99.90
2019-05-02T01:58:14.864Z,99.90
2019-05-02T02:00:44.800Z,99.90
2019-05-02T02:03:11.770Z,99.90
2019-05-02T02:05:39.132Z,99.90
2019-05-02T02:08:06.632Z,99.90
2019-05-02T02:10:34.316Z,99.90
2019-05-02T02:13:04.953Z,99.90
2019-05-02T02:15:30.946Z,99.90
2019-05-02T02:17:58.256Z,99.90
2019-05-02T02:20:27.879Z,99.90
2019-05-02T02:23:10.279Z,99.90
2019-05-02T02:25:40.512Z,99.90
2019-05-02T02:28:08.122Z,99.90
2019-05-02T02:30:35.493Z,99.90
2019-05-02T02:33:07.404Z,99.90
2019-05-02T02:35:32.609Z,99.90
2019-05-02T02:38:01.152Z,99.90
2019-05-02T02:40:33.647Z,99.90
2019-05-02T02:43:10.131Z,99.90
2019-05-02T02:45:40.868Z,99.90
2019-05-02T02:48:08.309Z,99.90
2019-05-02T02:50:36.633Z,99.90
2019-05-02T02:53:05.392Z,99.90
2019-05-02T02:55:32.825Z,99.90
2019-05-02T02:58:04.780Z,99.90
2019-05-02T03:00:29.859Z,99.90
2019-05-02T03:02:57.356Z,99.90
2019-05-02T03:05:25.883Z,99.90
2019-05-02T03:07:59.636Z,99.90
2019-05-02T03:10:23.366Z,99.90
2019-05-02T03:13:15.038Z,99.90
2019-05-02T03:15:45.794Z,99.90
2019-05-02T03:18:13.227Z,99.90
2019-05-02T03:20:42.117Z,99.90
2019-05-02T03:23:15.333Z,99.90
2019-05-02T03:25:50.266Z,99.90
2019-05-02T03:28:17.358Z,99.90
2019-05-02T03:30:38.136Z,99.90
2019-05-02T03:33:11.439Z,99.90
2019-05-02T03:35:42.799Z,99.90
2019-05-02T03:38:05.378Z,99.90
2019-05-02T03:40:38.964Z,99.90
2019-05-02T03:43:02.295Z,99.90
2019-05-02T03:45:32.027Z,99.90
2019-05-02T03:48:00.667Z,99.90
2019-05-02T03:50:32.884Z,99.90
2019-05-02T03:52:57.619Z,99.90
2019-05-02T03:55:30.752Z,99.90
2019-05-02T03:57:54.384Z,99.90
2019-05-02T04:00:24.240Z,99.90
2019-05-02T04:02:58.930Z,99.90
2019-05-02T04:05:21.232Z,99.90
2019-05-02T04:07:49.364Z,99.90
2019-05-02T04:10:38.761Z,99.90
2019-05-02T04:13:06.366Z,99.90
2019-05-02T04:15:37.482Z,99.90
2019-05-02T04:18:08.538Z,99.90
2019-05-02T04:20:34.382Z,99.90
2019-05-02T04:23:01.761Z,99.90
2019-05-02T04:25:33.984Z,99.90
2019-05-02T04:28:00.024Z,99.90
2019-05-02T04:30:27.543Z,99.90
2019-05-02T04:32:55.836Z,99.90
2019-05-02T04:35:28.724Z,99.90
2019-05-02T04:37:59.141Z,99.90
2019-05-02T04:40:28.340Z,99.90
2019-05-02T04:43:05.480Z,99.90
2019-05-02T04:45:35.866Z,99.90
2019-05-02T04:48:00.920Z,99.90
2019-05-02T04:50:25.560Z,99.90
2019-05-02T04:52:54.239Z,99.90
2019-05-02T04:55:29.109Z,99.90
2019-05-02T04:57:51.592Z,99.90
2019-05-02T05:00:28.387Z,99.90
2019-05-02T05:02:55.286Z,99.90
2019-05-02T05:05:25.801Z,99.90
2019-05-02T05:07:52.580Z,99.90
2019-05-02T05:10:19.874Z,99.90
2019-05-02T05:12:48.013Z,99.90
2019-05-02T05:15:33.888Z,99.90
2019-05-02T05:17:45.141Z,99.90
2019-05-02T05:20:15.639Z,99.90
2019-05-02T05:22:44.223Z,99.90
2019-05-02T05:25:19.734Z,99.90
2019-05-02T05:27:47.883Z,99.90
2019-05-02T05:30:18.040Z,99.90
2019-05-02T05:32:44.591Z,99.90
2019-05-02T05:35:13.072Z,99.90
2019-05-02T05:37:43.260Z,99.90
2019-05-02T05:40:09.982Z,99.90
2019-05-02T05:42:37.896Z,99.90
2019-05-02T05:45:09.835Z,99.90
2019-05-02T05:47:34.623Z,99.90
2019-05-02T05:50:02.019Z,99.90
2019-05-02T05:52:33.014Z,99.90
2019-05-02T05:54:58.744Z,99.90
2019-05-02T05:57:27.866Z,99.90
2019-05-02T05:59:58.247Z,99.90
2019-05-02T06:02:25.297Z,99.90
2019-05-02T06:04:55.333Z,99.90
2019-05-02T06:07:22.200Z,99.90
2019-05-02T06:09:49.551Z,99.90
2019-05-02T06:12:16.967Z,99.90
2019-05-02T06:14:46.429Z,99.90
2019-05-02T06:17:13.833Z,99.90
2019-05-02T06:19:41.439Z,99.90
2019-05-02T06:22:08.749Z,99.90
2019-05-02T06:24:36.655Z,99.90
2019-05-02T06:27:03.972Z,99.90
2019-05-02T06:29:31.601Z,99.90
2019-05-02T06:32:01.191Z,99.90
2019-05-02T06:34:29.051Z,99.90
2019-05-02T06:36:56.518Z,99.90
2019-05-02T06:39:27.152Z,99.90
2019-05-02T06:41:57.520Z,99.90
2019-05-02T06:44:23.806Z,99.90
2019-05-02T06:46:51.635Z,99.90
2019-05-02T06:49:24.208Z,99.90
2019-05-02T06:51:51.054Z,99.90
2019-05-02T06:54:22.372Z,99.90
2019-05-02T06:56:47.906Z,99.90
2019-05-02T06:59:18.424Z,99.90
2019-05-02T07:01:45.714Z,99.90
2019-05-02T07:04:17.413Z,99.90
2019-05-02T07:06:57.644Z,99.90
2019-05-02T07:09:11.697Z,99.90
2019-05-02T07:11:40.976Z,99.90
2019-05-02T07:14:13.667Z,99.90
2019-05-02T07:16:43.699Z,99.90
2019-05-02T07:19:27.443Z,99.90
2019-05-02T07:21:53.216Z,99.90
2019-05-02T07:24:25.246Z,99.90
2019-05-02T07:26:52.065Z,99.90
2019-05-02T07:29:21.811Z,99.90
2019-05-02T07:31:49.780Z,99.90
2019-05-02T07:34:17.170Z,99.90
2019-05-02T07:36:44.902Z,99.90
2019-05-02T07:39:12.266Z,99.90
2019-05-02T07:41:39.704Z,99.90
2019-05-02T07:44:07.088Z,99.90
2019-05-02T07:46:34.479Z,99.90
2019-05-02T07:49:02.269Z,99.90
2019-05-02T07:51:29.891Z,99.90
2019-05-02T07:53:57.591Z,99.90
2019-05-02T07:56:25.046Z,99.90
2019-05-02T07:58:52.518Z,99.90
2019-05-02T08:01:19.972Z,99.90
2019-05-02T08:03:47.403Z,99.90
2019-05-02T08:06:14.806Z,99.90
2019-05-02T08:08:42.109Z,99.90
2019-05-02T08:11:09.488Z,98.40
2019-05-02T08:13:36.803Z,98.60
2019-05-02T08:16:04.272Z,97.50
2019-05-02T08:18:31.787Z,97.20
2019-05-02T08:20:59.541Z,97.00
2019-05-02T08:23:27.870Z,96.60
2019-05-02T08:25:56.048Z,96.90
2019-05-02T08:28:29.377Z,97.70
2019-05-02T08:30:57.512Z,97.70
2019-05-02T08:33:29.168Z,94.40
2019-05-02T08:35:54.139Z,94.60
2019-05-02T08:38:21.775Z,93.40
2019-05-02T08:40:49.736Z,94.00
2019-05-02T08:43:17.494Z,92.90
2019-05-02T08:45:45.105Z,92.20
2019-05-02T08:48:12.411Z,91.70
2019-05-02T08:50:39.788Z,91.20
2019-05-02T08:53:07.161Z,91.80
2019-05-02T08:55:34.558Z,91.10
2019-05-02T08:58:06.104Z,93.10
2019-05-02T09:00:32.244Z,90.70
2019-05-02T09:03:02.745Z,89.00
2019-05-02T09:05:29.810Z,86.10
2019-05-02T09:07:57.185Z,88.70
2019-05-02T09:10:24.900Z,87.20
2019-05-02T09:12:52.270Z,86.30
2019-05-02T09:15:19.613Z,86.30
2019-05-02T09:17:52.693Z,90.20
2019-05-02T09:20:20.842Z,87.10
2019-05-02T09:22:46.634Z,87.60
2019-05-02T09:25:16.320Z,89.70
2019-05-02T09:27:43.636Z,86.10
2019-05-02T09:30:12.134Z,81.80
2019-05-02T09:32:41.708Z,81.90
2019-05-02T09:35:08.937Z,80.30
2019-05-02T09:37:41.692Z,78.70
2019-05-02T09:40:12.592Z,77.50
2019-05-02T09:42:38.208Z,74.80
2019-05-02T09:45:09.854Z,75.30
2019-05-02T09:47:55.374Z,76.70
2019-05-02T09:50:12.581Z,82.50
2019-05-02T09:52:43.619Z,74.70
2019-05-02T09:55:09.352Z,72.80
2019-05-02T09:57:36.755Z,74.20
2019-05-02T10:00:08.101Z,72.80
2019-05-02T10:02:35.533Z,73.00
2019-05-02T10:05:02.924Z,76.20
2019-05-02T10:07:32.397Z,73.80
2019-05-02T10:10:03.122Z,70.10
2019-05-02T10:12:29.115Z,71.40
2019-05-02T10:14:56.446Z,72.30
2019-05-02T10:17:24.840Z,75.70
2019-05-02T10:19:56.733Z,74.10
2019-05-02T10:22:23.831Z,69.50
2019-05-02T10:24:51.989Z,72.10
2019-05-02T10:27:21.480Z,73.90
2019-05-02T10:29:49.161Z,72.00
2019-05-02T10:32:16.880Z,72.90
2019-05-02T10:34:47.582Z,70.50
2019-05-02T10:37:14.001Z,70.80
2019-05-02T10:39:42.303Z,71.00
2019-05-02T10:42:10.120Z,70.80
2019-05-02T10:44:38.121Z,70.30
2019-05-02T10:47:05.570Z,67.00
2019-05-02T10:49:39.436Z,66.80
2019-05-02T10:52:06.823Z,66.90
2019-05-02T10:54:37.485Z,76.70
2019-05-02T10:57:03.378Z,73.40
2019-05-02T10:59:32.640Z,73.10
2019-05-02T11:02:18.688Z,73.80
2019-05-02T11:04:52.324Z,67.60
2019-05-02T11:07:22.719Z,65.40
2019-05-02T11:09:48.584Z,64.50
2019-05-02T11:12:25.619Z,66.80
2019-05-02T11:14:57.131Z,66.40
2019-05-02T11:17:37.450Z,64.20
2019-05-02T11:20:08.068Z,65.90
2019-05-02T11:22:35.413Z,68.60
2019-05-02T11:25:03.873Z,70.70
2019-05-02T11:27:32.853Z,63.00
2019-05-02T11:30:02.729Z,63.10
2019-05-02T11:32:32.543Z,63.70
2019-05-02T11:34:59.729Z,68.30
2019-05-02T11:37:27.555Z,63.80
2019-05-02T11:40:00.118Z,64.10
2019-05-02T11:42:27.240Z,65.70
2019-05-02T11:44:53.817Z,66.40
2019-05-02T11:47:26.341Z,67.00
2019-05-02T11:49:55.613Z,67.50
2019-05-02T11:52:22.604Z,65.70
2019-05-02T11:54:51.995Z,65.80
2019-05-02T11:57:22.792Z,67.00
2019-05-02T11:59:49.262Z,63.20
2019-05-02T12:02:34.807Z,64.00
2019-05-02T12:05:02.362Z,69.30
2019-05-02T12:07:32.328Z,67.60
2019-05-02T12:10:02.715Z,66.30
2019-05-02T12:12:32.467Z,67.70
2019-05-02T12:14:59.233Z,68.40
2019-05-02T12:17:26.672Z,65.90
2019-05-02T12:19:54.193Z,68.80
2019-05-02T12:22:22.588Z,68.80
2019-05-02T12:24:51.908Z,73.40
2019-05-02T12:27:19.659Z,70.70
2019-05-02T12:29:50.197Z,69.70
2019-05-02T12:32:16.890Z,71.10
2019-05-02T12:34:44.226Z,70.10
2019-05-02T12:37:12.623Z,69.20
2019-05-02T12:39:42.428Z,71.80
2019-05-02T12:42:12.212Z,74.10
2019-05-02T12:44:39.601Z,72.50
2019-05-02T12:47:07.037Z,71.30
2019-05-02T12:49:36.190Z,73.30
2019-05-02T12:52:03.620Z,74.70
2019-05-02T12:54:32.531Z,74.80
2019-05-02T12:57:01.987Z,75.20
2019-05-02T12:59:32.078Z,71.40
2019-05-02T13:02:02.507Z,69.10
2019-05-02T13:04:32.227Z,72.80
2019-05-02T13:06:59.479Z,70.30
2019-05-02T13:09:27.045Z,69.20
2019-05-02T13:12:13.306Z,67.40
2019-05-02T13:14:42.348Z,67.00
2019-05-02T13:17:11.964Z,67.30
2019-05-02T13:19:41.517Z,66.80
2019-05-02T13:22:28.100Z,69.80
2019-05-02T13:24:58.555Z,70.40
2019-05-02T13:27:26.599Z,70.30
2019-05-02T13:29:54.067Z,67.50
2019-05-02T13:32:39.112Z,66.50
2019-05-02T13:35:19.334Z,67.70
2019-05-02T13:37:47.141Z,68.70
2019-05-02T13:40:41.777Z,69.20
2019-05-02T13:43:09.307Z,69.10
2019-05-02T13:45:53.328Z,69.80
2019-05-02T13:48:21.774Z,69.80
2019-05-02T13:50:49.333Z,70.70
2019-05-02T13:53:17.821Z,70.10
2019-05-02T13:56:16.352Z,68.80
2019-05-02T13:58:44.169Z,70.10
2019-05-02T14:01:11.782Z,70.90
2019-05-02T14:03:39.370Z,71.40
2019-05-02T14:06:07.051Z,70.50
2019-05-02T14:08:58.211Z,68.60
2019-05-02T14:11:47.294Z,70.70
2019-05-02T14:14:15.012Z,68.50
2019-05-02T14:16:42.419Z,67.80
2019-05-02T14:19:09.748Z,66.10
2019-05-02T14:21:37.184Z,66.20
2019-05-02T14:24:04.678Z,67.60
2019-05-02T14:26:33.195Z,68.80
2019-05-02T14:29:02.518Z,68.00
2019-05-02T14:31:32.235Z,70.50
2019-05-02T14:34:32.836Z,67.90
2019-05-02T14:37:02.036Z,67.90
2019-05-02T14:39:29.797Z,66.00
2019-05-02T14:41:57.896Z,66.00
2019-05-02T14:44:30.355Z,66.80
2019-05-02T14:46:54.500Z,69.10
2019-05-02T14:49:25.504Z,69.10
2019-05-02T14:51:52.503Z,70.00
2019-05-02T14:54:20.013Z,70.40
2019-05-02T14:56:56.275Z,70.80
2019-05-02T14:59:23.594Z,66.40
2019-05-02T15:01:57.987Z,69.80
2019-05-02T15:04:23.849Z,67.90
2019-05-02T15:06:52.527Z,64.00
2019-05-02T15:09:24.848Z,67.00
2019-05-02T15:11:58.707Z,65.90
2019-05-02T15:14:34.050Z,68.60
2019-05-02T15:17:02.534Z,67.60
2019-05-02T15:19:32.708Z,68.10
2019-05-02T15:22:01.965Z,70.00
2019-05-02T15:24:35.221Z,67.50
2019-05-02T15:27:05.491Z,66.50
2019-05-02T15:29:28.339Z,71.10
2019-05-02T15:32:15.350Z,76.10
2019-05-02T15:34:57.219Z,79.40
2019-05-02T15:37:25.885Z,78.50
2019-05-02T15:42:25.614Z,76.70
2019-05-02T15:44:57.226Z,75.30
2019-05-02T15:47:22.997Z,76.70
2019-05-02T15:49:50.418Z,77.90
2019-05-02T15:52:24.097Z,77.40
2019-05-02T15:54:59.637Z,76.90
2019-05-02T15:57:24.717Z,77.10
2019-05-02T16:00:01.645Z,76.60
2019-05-02T16:02:32.008Z,76.40
2019-05-02T16:05:02.448Z,78.30
2019-05-02T16:07:28.922Z,75.90
2019-05-02T16:10:00.092Z,82.00
2019-05-02T16:12:27.114Z,76.10
2019-05-02T16:14:55.561Z,75.30
2019-05-02T16:17:27.096Z,74.60
2019-05-02T16:19:58.811Z,76.10
2019-05-02T16:22:26.165Z,70.50
2019-05-02T16:24:56.366Z,70.70
2019-05-02T16:27:44.113Z,69.10
2019-05-02T16:30:14.087Z,69.00
2019-05-02T16:32:45.955Z,68.40
2019-05-02T16:35:17.463Z,68.60
2019-05-02T16:37:46.750Z,68.20
2019-05-02T16:40:13.619Z,67.80
2019-05-02T16:42:41.922Z,68.00
2019-05-02T16:45:11.641Z,68.40
2019-05-02T16:47:39.138Z,69.70
2019-05-02T16:50:09.000Z,70.40
2019-05-02T16:52:38.068Z,70.90
2019-05-02T16:55:06.516Z,72.30
2019-05-02T16:57:35.287Z,75.10
2019-05-02T17:00:06.231Z,79.20
2019-05-02T17:02:33.408Z,80.80
2019-05-02T17:05:08.001Z,81.80
2019-05-02T17:07:53.414Z,82.50
2019-05-02T17:10:25.248Z,81.80
2019-05-02T17:12:57.730Z,83.20
2019-05-02T17:15:31.448Z,83.00
2019-05-02T17:17:57.521Z,83.50
2019-05-02T17:20:56.908Z,82.80
2019-05-02T17:23:24.856Z,84.10
2019-05-02T17:25:52.283Z,85.00
2019-05-02T17:28:19.942Z,85.10
2019-05-02T17:30:47.414Z,86.30
2019-05-02T17:33:16.433Z,88.60
2019-05-02T17:35:49.585Z,89.30
2019-05-02T17:38:19.140Z,89.20
2019-05-02T17:40:44.671Z,88.20
2019-05-02T17:43:12.059Z,89.40
2019-05-02T17:45:40.313Z,89.40
2019-05-02T17:48:15.779Z,90.00
2019-05-02T17:51:01.956Z,90.10
2019-05-02T17:53:33.586Z,90.50
2019-05-02T17:55:58.372Z,90.80
2019-05-02T17:58:25.683Z,91.60
2019-05-02T18:00:57.059Z,91.50
2019-05-02T18:03:30.936Z,91.70
2019-05-02T18:05:54.732Z,92.10
2019-05-02T18:08:22.301Z,92.20
2019-05-02T18:10:50.637Z,92.80
2019-05-02T18:13:19.789Z,93.10
2019-05-02T18:15:47.113Z,94.00
2019-05-02T18:18:14.544Z,94.00
2019-05-02T18:20:46.383Z,94.90
2019-05-02T18:23:12.256Z,94.90
2019-05-02T18:25:39.930Z,95.20
2019-05-02T18:28:07.369Z,95.80
2019-05-02T18:30:44.262Z,95.90
2019-05-02T18:33:12.073Z,96.40
2019-05-02T18:35:43.029Z,96.50
2019-05-02T18:38:08.912Z,96.70
2019-05-02T18:40:37.816Z,96.80
2019-05-02T18:43:05.540Z,97.00
2019-05-02T18:45:33.260Z,97.30
2019-05-02T18:48:06.617Z,98.00
2019-05-02T18:50:46.380Z,97.80
2019-05-02T18:53:13.795Z,98.10
2019-05-02T18:55:44.469Z,98.70
2019-05-02T18:58:12.753Z,99.50
2019-05-02T19:00:48.108Z,99.90
2019-05-02T19:03:17.299Z,99.90
2019-05-02T19:05:46.640Z,99.90
2019-05-02T19:08:14.045Z,99.90
2019-05-02T19:10:50.684Z,99.90
2019-05-02T19:13:12.683Z,99.90
2019-05-02T19:15:45.213Z,99.90
2019-05-02T19:18:10.558Z,99.90
2019-05-02T19:21:04.620Z,99.90
2019-05-02T19:23:32.890Z,99.90
2019-05-02T19:26:03.745Z,99.90
2019-05-02T19:28:48.287Z,99.90
2019-05-02T19:31:15.715Z,99.90
2019-05-02T19:33:44.178Z,99.90
2019-05-02T19:36:16.304Z,99.90
2019-05-02T19:38:42.825Z,99.90
2019-05-02T19:41:11.699Z,99.90
2019-05-02T19:43:40.464Z,99.90
2019-05-02T19:46:08.732Z,99.90
2019-05-02T19:48:37.990Z,99.90
2019-05-02T19:51:05.599Z,99.90
2019-05-02T19:53:36.265Z,99.90
2019-05-02T19:56:06.513Z,99.90
2019-05-02T19:58:36.851Z,99.90
2019-05-02T20:01:03.173Z,99.90
2019-05-02T20:03:32.325Z,99.90
2019-05-02T20:06:02.564Z,99.90
2019-05-02T20:08:29.413Z,99.90
2019-05-02T20:10:58.442Z,99.90
2019-05-02T20:13:28.522Z,99.90
2019-05-02T20:16:05.804Z,99.90
2019-05-02T20:18:34.903Z,99.90
2019-05-02T20:21:27.192Z,99.90
2019-05-02T20:23:49.393Z,99.90
2019-05-02T20:26:18.714Z,99.90
2019-05-02T20:28:46.323Z,99.90
2019-05-02T20:31:14.092Z,99.90
2019-05-02T20:33:43.071Z,99.90
2019-05-02T20:36:12.394Z,99.90
2019-05-02T20:38:41.783Z,99.90
2019-05-02T20:41:09.725Z,99.90
2019-05-02T20:43:37.319Z,99.90
2019-05-02T20:46:05.066Z,99.90
2019-05-02T20:48:32.468Z,99.90
2019-05-02T20:51:02.528Z,99.90
2019-05-02T20:53:33.380Z,99.90
2019-05-02T20:56:01.683Z,99.90
2019-05-02T20:58:29.124Z,99.90
2019-05-02T21:01:05.544Z,99.90
2019-05-02T21:03:25.798Z,99.90
2019-05-02T21:06:18.630Z,99.90
2019-05-02T21:09:12.104Z,99.90
2019-05-02T21:11:43.630Z,99.90
2019-05-02T21:14:12.299Z,99.90
2019-05-02T21:16:49.156Z,99.90
2019-05-02T21:19:16.707Z,99.90
2019-05-02T21:21:44.460Z,99.90
2019-05-02T21:24:12.508Z,99.90
2019-05-02T21:26:42.159Z,99.90
2019-05-02T21:29:12.000Z,99.90
2019-05-02T21:31:39.438Z,99.90
2019-05-02T21:34:07.351Z,99.90
2019-05-02T21:36:34.894Z,99.90
2019-05-02T21:39:04.118Z,99.90
2019-05-02T21:41:33.026Z,99.90
2019-05-02T21:44:02.352Z,99.90
2019-05-02T21:46:31.751Z,99.90
2019-05-02T21:48:59.241Z,99.90
2019-05-02T21:51:39.508Z,99.90
2019-05-02T21:54:32.451Z,99.90
2019-05-02T21:57:07.271Z,99.90
2019-05-02T21:59:34.592Z,99.90
2019-05-02T22:02:02.474Z,99.90
2019-05-02T22:04:31.782Z,99.90
2019-05-02T22:06:59.323Z,99.90
2019-05-02T22:09:26.938Z,99.90
2019-05-02T22:11:54.341Z,99.90
2019-05-02T22:14:22.334Z,99.90
2019-05-02T22:16:50.056Z,99.90
2019-05-02T22:19:17.540Z,99.90
2019-05-02T22:21:45.268Z,99.90
2019-05-02T22:24:14.439Z,99.90
2019-05-02T22:26:43.583Z,99.90
2019-05-02T22:29:12.345Z,99.90
2019-05-02T22:31:39.840Z,99.90
2019-05-02T22:34:07.206Z,99.90
2019-05-02T22:36:34.950Z,99.90
2019-05-02T22:39:34.498Z,99.90
2019-05-02T22:42:04.688Z,99.90
2019-05-02T22:44:32.501Z,99.90
2019-05-02T22:47:00.105Z,99.90
2019-05-02T22:49:27.476Z,99.90
2019-05-02T22:51:54.954Z,99.90
2019-05-02T22:54:27.905Z,99.90
2019-05-02T22:56:52.199Z,99.90
2019-05-02T22:59:19.865Z,99.90
2019-05-02T23:01:47.781Z,99.90
2019-05-02T23:04:15.249Z,99.90
2019-05-02T23:06:44.256Z,99.90
2019-05-02T23:09:12.677Z,99.90
2019-05-02T23:11:42.346Z,99.90
2019-05-02T23:14:09.637Z,99.90
2019-05-02T23:16:37.387Z,99.90
2019-05-02T23:19:04.812Z,99.90
2019-05-02T23:21:32.509Z,99.90
2019-05-02T23:24:01.887Z,99.90
2019-05-02T23:26:43.413Z,99.90
2019-05-02T23:29:12.856Z,99.90
2019-05-02T23:31:42.189Z,99.90
2019-05-02T23:34:09.660Z,99.90
2019-05-02T23:36:37.105Z,99.90
2019-05-02T23:39:07.974Z,99.90
2019-05-02T23:41:35.420Z,99.90
2019-05-02T23:44:02.968Z,99.90
2019-05-02T23:46:30.436Z,99.90
2019-05-02T23:48:58.062Z,99.90
2019-05-02T23:51:25.776Z,99.90
2019-05-02T23:53:53.405Z,99.90
2019-05-02T23:56:22.086Z,99.90
2019-05-02T23:58:49.566Z,99.90
